Time;durP1;ratioP1;P1;durP2;ratioP2;P2;SDS_P1;SDS_P2;PMS_P1;PMS_P2;Temp;Humidity;BMP_temperature;BMP_pressure;BME280_temperature;BME280_humidity;BME280_pressure;Samples;Min_cycle;Max_cycle;Signal;HPM_P1;HPM_P2
2022/02/18 00:01:17;;;;;;;14.20;1.60;;;6.50;99.90;;;;;;4972216;28;20027;-77
2022/02/18 00:03:45;;;;;;;16.58;1.90;;;6.50;99.90;;;;;;4973769;28;20033;-82
2022/02/18 00:06:11;;;;;;;22.58;2.58;;;6.50;99.90;;;;;;4958888;28;20030;-77
2022/02/18 00:08:39;;;;;;;12.27;2.08;;;6.50;99.90;;;;;;4969230;28;20030;-80
2022/02/18 00:11:06;;;;;;;19.83;2.40;;;6.60;99.90;;;;;;4975431;28;20031;-81
2022/02/18 00:13:33;;;;;;;15.48;2.00;;;6.60;99.90;;;;;;4972928;28;20042;-81
2022/02/18 00:16:00;;;;;;;16.50;2.45;;;6.60;99.90;;;;;;4957018;28;20054;-78
2022/02/18 00:18:26;;;;;;;16.45;1.85;;;6.60;99.90;;;;;;4955257;28;20027;-77
2022/02/18 00:20:53;;;;;;;17.88;3.03;;;6.60;99.90;;;;;;4990687;28;20038;-77
2022/02/18 00:23:19;;;;;;;18.17;3.22;;;6.60;99.90;;;;;;4986847;28;20030;-82
2022/02/18 00:25:46;;;;;;;11.40;2.20;;;6.60;99.90;;;;;;4957648;28;20030;-81
2022/02/18 00:28:12;;;;;;;15.52;2.63;;;6.60;99.90;;;;;;4958044;28;20049;-80
2022/02/18 00:30:38;;;;;;;12.25;1.80;;;6.60;99.90;;;;;;4927965;28;20058;-81
2022/02/18 00:33:08;;;;;;;14.30;1.17;;;6.70;99.90;;;;;;4974035;28;20041;-80
2022/02/18 00:35:34;;;;;;;24.45;2.28;;;6.70;99.90;;;;;;4944299;28;20044;-80
2022/02/18 00:38:02;;;;;;;19.92;2.35;;;6.70;99.90;;;;;;4970210;28;20045;-81
2022/02/18 00:40:30;;;;;;;13.27;2.17;;;6.70;99.90;;;;;;4973550;28;20046;-81
2022/02/18 00:42:58;;;;;;;20.08;2.15;;;6.70;99.90;;;;;;4961772;28;23365;-82
2022/02/18 00:45:25;;;;;;;16.35;2.40;;;6.70;99.90;;;;;;4978333;28;20049;-80
2022/02/18 00:47:52;;;;;;;15.15;2.03;;;6.70;99.90;;;;;;4960040;28;20484;-80
2022/02/18 00:50:20;;;;;;;24.30;2.45;;;6.70;99.90;;;;;;4977273;28;20041;-80
2022/02/18 00:52:47;;;;;;;17.17;1.40;;;6.70;99.90;;;;;;4992434;28;20018;-77
2022/02/18 00:55:15;;;;;;;12.13;1.42;;;6.70;99.90;;;;;;4977472;28;20494;-76
2022/02/18 00:57:41;;;;;;;10.23;0.90;;;6.70;99.90;;;;;;4961720;28;20034;-77
2022/02/18 01:00:10;;;;;;;10.73;1.55;;;6.70;99.90;;;;;;4965768;28;20046;-77
2022/02/18 01:02:39;;;;;;;15.95;1.67;;;6.80;99.90;;;;;;4971468;28;20026;-79
2022/02/18 01:05:08;;;;;;;14.20;1.45;;;6.80;99.90;;;;;;4993621;28;20034;-78
2022/02/18 01:07:34;;;;;;;15.68;1.77;;;6.70;99.90;;;;;;4992118;28;20717;-81
2022/02/18 01:10:01;;;;;;;20.25;1.80;;;6.70;99.90;;;;;;4962791;28;20030;-78
2022/02/18 01:12:30;;;;;;;26.67;3.42;;;6.80;99.90;;;;;;4943816;28;20057;-78
2022/02/18 01:14:59;;;;;;;17.60;2.63;;;6.70;99.90;;;;;;4974510;28;20027;-80
2022/02/18 01:17:28;;;;;;;17.88;1.85;;;6.70;99.90;;;;;;4960090;28;20053;-80
2022/02/18 01:19:56;;;;;;;13.38;1.80;;;6.70;99.90;;;;;;4965457;28;20038;-80
2022/02/18 01:22:22;;;;;;;8.60;1.40;;;6.70;99.90;;;;;;4946548;28;20049;-80
2022/02/18 01:24:49;;;;;;;13.15;1.45;;;6.70;99.90;;;;;;4975627;28;20034;-80
2022/02/18 01:27:20;;;;;;;18.67;1.42;;;6.70;99.90;;;;;;4958969;28;20038;-78
2022/02/18 01:29:46;;;;;;;12.20;1.73;;;6.70;99.90;;;;;;4993716;28;20038;-80
2022/02/18 01:32:13;;;;;;;15.82;2.00;;;6.70;99.90;;;;;;4963264;28;20506;-79
2022/02/18 01:34:41;;;;;;;12.95;1.55;;;6.70;99.90;;;;;;4959799;28;20046;-80
2022/02/18 01:37:08;;;;;;;10.75;1.23;;;6.70;99.90;;;;;;4957196;28;20026;-80
2022/02/18 01:39:35;;;;;;;17.88;2.28;;;6.70;99.90;;;;;;4957135;28;20026;-80
2022/02/18 01:42:02;;;;;;;16.77;1.58;;;6.70;99.90;;;;;;4955727;28;20035;-81
2022/02/18 01:44:36;;;;;;;19.05;1.70;;;6.70;99.90;;;;;;4943638;28;20490;-78
2022/02/18 01:47:05;;;;;;;13.75;2.13;;;6.70;99.90;;;;;;4971653;28;20035;-78
2022/02/18 01:49:31;;;;;;;10.18;1.38;;;6.70;99.90;;;;;;4989460;28;20370;-78
2022/02/18 01:51:58;;;;;;;11.80;1.88;;;6.70;99.90;;;;;;4960314;28;20018;-77
2022/02/18 01:54:25;;;;;;;13.52;1.30;;;6.70;99.90;;;;;;4990149;28;20480;-77
2022/02/18 01:56:51;;;;;;;15.35;1.55;;;6.70;99.90;;;;;;4958998;28;20511;-77
2022/02/18 01:59:18;;;;;;;13.65;1.38;;;6.70;99.90;;;;;;4977365;28;20023;-78
2022/02/18 02:01:45;;;;;;;18.63;1.95;;;6.70;99.90;;;;;;4970448;28;20043;-78
2022/02/18 02:04:11;;;;;;;10.57;1.33;;;6.80;99.90;;;;;;4960943;28;20029;-77
2022/02/18 02:06:39;;;;;;;12.98;1.35;;;6.80;99.90;;;;;;4975270;28;20695;-77
2022/02/18 02:09:05;;;;;;;13.02;1.60;;;6.80;99.90;;;;;;4972350;28;20031;-78
2022/02/18 02:11:32;;;;;;;7.97;1.23;;;6.80;99.90;;;;;;4960801;28;20029;-78
2022/02/18 02:14:03;;;;;;;13.88;1.55;;;6.90;99.90;;;;;;4944019;28;20033;-77
2022/02/18 02:16:31;;;;;;;8.98;1.00;;;6.90;99.90;;;;;;4957453;28;20038;-77
2022/02/18 02:18:58;;;;;;;11.73;1.25;;;6.90;99.90;;;;;;4956274;28;20033;-78
2022/02/18 02:21:26;;;;;;;14.60;1.60;;;6.90;99.90;;;;;;4958464;28;20508;-77
2022/02/18 02:23:59;;;;;;;18.35;1.73;;;6.90;99.90;;;;;;4959422;28;20466;-78
2022/02/18 02:26:30;;;;;;;10.60;1.00;;;6.90;99.90;;;;;;4957073;28;20430;-77
2022/02/18 02:28:57;;;;;;;10.57;1.58;;;7.00;99.90;;;;;;4959913;28;20042;-77
2022/02/18 02:31:25;;;;;;;12.48;1.77;;;7.00;99.90;;;;;;4960875;28;20378;-77
2022/02/18 02:33:53;;;;;;;7.03;1.65;;;7.00;99.90;;;;;;4979966;28;20049;-77
2022/02/18 02:36:21;;;;;;;9.23;1.25;;;7.00;99.90;;;;;;4959926;28;20729;-77
2022/02/18 02:38:51;;;;;;;8.95;1.17;;;7.00;99.90;;;;;;4962044;28;20026;-78
2022/02/18 02:41:18;;;;;;;16.13;1.23;;;7.10;99.90;;;;;;4974035;28;20065;-78
2022/02/18 02:43:45;;;;;;;11.90;1.55;;;7.10;99.90;;;;;;4988647;28;20068;-77
2022/02/18 02:46:12;;;;;;;9.48;1.30;;;7.10;99.90;;;;;;4942998;28;20042;-78
2022/02/18 02:48:39;;;;;;;12.73;2.17;;;7.10;99.90;;;;;;4970061;28;20026;-78
2022/02/18 02:51:21;;;;;;;9.80;0.95;;;7.10;99.90;;;;;;4944540;28;20033;-77
2022/02/18 02:53:49;;;;;;;8.45;0.90;;;7.10;99.90;;;;;;4977246;28;20041;-79
2022/02/18 02:56:16;;;;;;;14.70;2.10;;;7.10;99.90;;;;;;4975297;28;20026;-79
2022/02/18 02:58:43;;;;;;;11.18;1.50;;;7.10;99.90;;;;;;4939388;28;20038;-79
2022/02/18 03:01:13;;;;;;;7.53;1.83;;;7.10;99.90;;;;;;4975621;28;20030;-78
2022/02/18 03:03:46;;;;;;;11.35;1.60;;;7.20;99.90;;;;;;4953834;28;20532;-79
2022/02/18 03:06:13;;;;;;;11.63;1.65;;;7.20;99.90;;;;;;4975428;28;20033;-81
2022/02/18 03:08:40;;;;;;;21.88;2.78;;;7.20;99.90;;;;;;4936290;28;20094;-80
2022/02/18 03:11:22;;;;;;;17.70;2.25;;;7.20;99.90;;;;;;4975512;28;20466;-80
2022/02/18 03:14:12;;;;;;;15.10;2.35;;;7.20;99.90;;;;;;4961825;28;20042;-80
2022/02/18 03:16:47;;;;;;;14.73;2.05;;;7.20;99.90;;;;;;4942098;28;20038;-80
2022/02/18 03:19:13;;;;;;;11.98;1.90;;;7.20;99.90;;;;;;4974080;28;20030;-81
2022/02/18 03:21:40;;;;;;;11.20;2.25;;;7.20;99.90;;;;;;4955573;28;20430;-78
2022/02/18 03:24:08;;;;;;;10.52;1.40;;;7.20;99.90;;;;;;4973161;28;20049;-77
2022/02/18 03:26:35;;;;;;;11.20;1.50;;;7.20;99.90;;;;;;4937773;28;20046;-78
2022/02/18 03:29:07;;;;;;;;;;;7.20;99.90;;;;;;4942217;28;20374;-79
2022/02/18 03:31:54;;;;;;;16.30;2.42;;;7.20;99.90;;;;;;4969515;28;19913;-78
2022/02/18 03:34:29;;;;;;;16.02;2.75;;;7.20;99.90;;;;;;4957762;28;20036;-81
2022/02/18 03:36:59;;;;;;;15.38;3.58;;;7.20;99.90;;;;;;4981631;28;20030;-81
2022/02/18 03:39:32;;;;;;;;;;;7.20;99.90;;;;;;4973769;28;20050;-83
2022/02/18 03:42:01;;;;;;;27.17;5.75;;;7.20;99.90;;;;;;4969088;28;20416;-82
2022/02/18 03:44:31;;;;;;;21.73;4.25;;;7.20;99.90;;;;;;4966398;28;20045;-80
2022/02/18 03:47:03;;;;;;;;;;;7.30;99.90;;;;;;4949646;28;20030;-80
2022/02/18 03:49:30;;;;;;;14.88;2.22;;;7.30;99.90;;;;;;4952905;28;20230;-80
2022/02/18 03:51:56;;;;;;;17.02;2.80;;;7.30;99.90;;;;;;4939540;28;20496;-80
2022/02/18 03:54:25;;;;;;;19.23;2.88;;;7.30;99.90;;;;;;4968338;28;20027;-79
2022/02/18 03:56:54;;;;;;;15.40;2.53;;;7.40;99.90;;;;;;4950003;28;20033;-80
2022/02/18 03:59:22;;;;;;;17.65;2.85;;;7.40;99.90;;;;;;4971436;28;20029;-79
2022/02/18 04:01:53;;;;;;;19.27;2.67;;;7.40;99.90;;;;;;4987316;28;20046;-80
2022/02/18 04:04:20;;;;;;;15.45;2.45;;;7.40;99.90;;;;;;4970593;28;20377;-79
2022/02/18 04:06:51;;;;;;;17.98;2.00;;;7.40;99.90;;;;;;4967952;28;20045;-79
2022/02/18 04:09:27;;;;;;;17.83;2.03;;;7.40;99.90;;;;;;4981921;28;20413;-79
2022/02/18 04:11:58;;;;;;;16.77;1.75;;;7.30;99.90;;;;;;4970646;28;21225;-80
2022/02/18 04:14:27;;;;;;;9.63;1.40;;;7.30;99.90;;;;;;4936790;28;20478;-79
2022/02/18 04:17:07;;;;;;;21.08;1.70;;;7.30;99.90;;;;;;4947169;28;20031;-79
2022/02/18 04:19:38;;;;;;;16.67;2.60;;;7.30;99.90;;;;;;4944563;28;20034;-81
2022/02/18 04:22:05;;;;;;;14.80;1.65;;;7.30;99.90;;;;;;4945573;28;20394;-80
2022/02/18 04:24:38;;;;;;;13.35;1.90;;;7.30;99.90;;;;;;4990488;28;20052;-80
2022/02/18 04:27:06;;;;;;;20.75;2.22;;;7.30;99.90;;;;;;4953997;28;20505;-80
2022/02/18 04:29:33;;;;;;;16.20;1.65;;;7.30;99.90;;;;;;4975236;28;20606;-80
2022/02/18 04:32:00;;;;;;;14.85;2.13;;;7.30;99.90;;;;;;4989072;28;20030;-80
2022/02/18 04:34:26;;;;;;;17.27;2.53;;;7.30;99.90;;;;;;4975407;28;20042;-81
2022/02/18 04:36:53;;;;;;;21.95;2.80;;;7.30;99.90;;;;;;4954701;28;20046;-79
2022/02/18 04:39:19;;;;;;;20.67;2.35;;;7.30;99.90;;;;;;4975379;28;20018;-80
2022/02/18 04:41:45;;;;;;;19.50;2.33;;;7.30;99.90;;;;;;4975277;28;20041;-80
2022/02/18 04:44:14;;;;;;;15.73;1.63;;;7.30;99.90;;;;;;4975398;28;20133;-81
2022/02/18 04:46:40;;;;;;;14.75;1.88;;;7.30;99.90;;;;;;4959193;28;20031;-81
2022/02/18 04:49:07;;;;;;;20.65;2.65;;;7.40;99.90;;;;;;4960302;28;20046;-81
2022/02/18 04:51:33;;;;;;;23.00;2.53;;;7.40;99.90;;;;;;4990710;28;20042;-80
2022/02/18 04:54:00;;;;;;;20.35;2.08;;;7.40;99.90;;;;;;4957731;28;20039;-80
2022/02/18 04:56:27;;;;;;;16.10;2.88;;;7.40;99.90;;;;;;4973974;28;20049;-81
2022/02/18 04:58:53;;;;;;;28.85;6.72;;;7.40;99.90;;;;;;4953121;28;20045;-81
2022/02/18 05:01:20;;;;;;;21.33;4.95;;;7.30;99.90;;;;;;4959428;28;20053;-82
2022/02/18 05:03:46;;;;;;;40.90;10.90;;;7.40;99.90;;;;;;4957614;28;20394;-82
2022/02/18 05:06:14;;;;;;;31.92;9.75;;;7.40;99.90;;;;;;4939486;28;20490;-82
2022/02/18 05:08:40;;;;;;;35.05;6.00;;;7.40;99.90;;;;;;4952812;28;20375;-81
2022/02/18 05:11:07;;;;;;;27.27;4.65;;;7.40;99.90;;;;;;4974393;28;20493;-82
2022/02/18 05:13:33;;;;;;;23.95;3.70;;;7.30;99.90;;;;;;4923610;28;20045;-81
2022/02/18 05:16:01;;;;;;;24.23;3.95;;;7.30;99.90;;;;;;4959263;28;20363;-81
2022/02/18 05:18:28;;;;;;;32.15;4.72;;;7.30;99.90;;;;;;4952518;28;20038;-80
2022/02/18 05:20:54;;;;;;;34.17;4.60;;;7.30;99.90;;;;;;4958520;28;20485;-80
2022/02/18 05:23:21;;;;;;;30.27;3.58;;;7.30;99.90;;;;;;4972251;28;20044;-80
2022/02/18 05:25:47;;;;;;;24.27;4.03;;;7.30;99.90;;;;;;4957224;28;20534;-82
2022/02/18 05:28:15;;;;;;;21.30;3.10;;;7.40;99.90;;;;;;4957484;28;20034;-82
2022/02/18 05:30:43;;;;;;;26.55;3.42;;;7.40;99.90;;;;;;4959290;28;20030;-78
2022/02/18 05:33:12;;;;;;;25.75;3.95;;;7.40;99.90;;;;;;4987831;28;20034;-78
2022/02/18 05:35:39;;;;;;;31.08;4.13;;;7.40;99.90;;;;;;4960613;28;20041;-78
2022/02/18 05:38:06;;;;;;;28.35;3.97;;;7.40;99.90;;;;;;4954289;28;20076;-78
2022/02/18 05:40:33;;;;;;;24.15;2.80;;;7.40;99.90;;;;;;4928085;28;20470;-79
2022/02/18 05:43:00;;;;;;;28.55;4.47;;;7.40;99.90;;;;;;4956823;28;20038;-79
2022/02/18 05:45:27;;;;;;;23.95;3.47;;;7.40;99.90;;;;;;4943741;28;20045;-78
2022/02/18 05:47:54;;;;;;;35.30;5.82;;;7.40;99.90;;;;;;4966995;28;20026;-79
2022/02/18 05:50:20;;;;;;;33.63;6.43;;;7.40;99.90;;;;;;4944943;28;20038;-77
2022/02/18 05:52:47;;;;;;;30.73;5.38;;;7.50;99.90;;;;;;4970415;28;20026;-78
2022/02/18 05:55:14;;;;;;;37.80;4.88;;;7.50;99.90;;;;;;4973336;28;20466;-79
2022/02/18 05:57:40;;;;;;;30.38;3.67;;;7.50;99.90;;;;;;4952676;28;20674;-77
2022/02/18 06:00:08;;;;;;;28.48;3.78;;;7.50;99.90;;;;;;4971693;28;20052;-77
2022/02/18 06:02:39;;;;;;;26.05;3.50;;;7.50;99.90;;;;;;4972906;28;21155;-79
2022/02/18 06:05:07;;;;;;;30.35;3.35;;;7.50;99.90;;;;;;4940691;28;20606;-78
2022/02/18 06:07:33;;;;;;;34.13;4.88;;;7.50;99.90;;;;;;4950468;28;20054;-78
2022/02/18 06:10:01;;;;;;;31.13;3.95;;;7.50;99.90;;;;;;4968302;28;20034;-78
2022/02/18 06:12:27;;;;;;;27.00;4.05;;;7.50;99.90;;;;;;4986535;28;20030;-78
2022/02/18 06:14:53;;;;;;;25.92;3.45;;;7.50;99.90;;;;;;4970541;28;20019;-77
2022/02/18 06:17:20;;;;;;;34.35;4.32;;;7.50;99.90;;;;;;4981777;28;20030;-77
2022/02/18 06:19:47;;;;;;;30.77;4.13;;;7.50;99.90;;;;;;4957291;28;20458;-77
2022/02/18 06:22:15;;;;;;;31.17;4.22;;;7.50;99.90;;;;;;4981203;28;20030;-77
2022/02/18 06:24:42;;;;;;;34.47;4.68;;;7.60;99.90;;;;;;4969200;28;20037;-77
2022/02/18 06:27:09;;;;;;;27.70;3.28;;;7.50;99.90;;;;;;4985767;28;20804;-79
2022/02/18 06:29:35;;;;;;;20.88;2.65;;;7.50;99.90;;;;;;4955929;28;20038;-78
2022/02/18 06:32:03;;;;;;;33.15;3.53;;;7.50;99.90;;;;;;4956244;28;20462;-78
2022/02/18 06:34:29;;;;;;;30.20;3.80;;;7.60;99.90;;;;;;4959256;28;20393;-79
2022/02/18 06:36:56;;;;;;;24.20;3.58;;;7.60;99.90;;;;;;4986766;28;20532;-79
2022/02/18 06:39:23;;;;;;;34.50;4.70;;;7.60;99.90;;;;;;4973806;28;20037;-79
2022/02/18 06:41:49;;;;;;;26.95;3.45;;;7.60;99.90;;;;;;4972615;28;20035;-80
2022/02/18 06:44:16;;;;;;;28.27;4.72;;;7.60;99.90;;;;;;4971538;28;20521;-79
2022/02/18 06:46:43;;;;;;;29.00;4.72;;;7.60;99.90;;;;;;4953921;28;20469;-79
2022/02/18 06:49:09;;;;;;;37.47;7.07;;;7.60;99.90;;;;;;4968271;28;20050;-80
2022/02/18 06:51:39;;;;;;;27.42;4.55;;;7.60;99.90;;;;;;4989402;28;20034;-80
2022/02/18 06:54:06;;;;;;;33.53;8.60;;;7.60;99.90;;;;;;4969036;28;20396;-79
2022/02/18 06:56:33;;;;;;;30.58;4.55;;;7.60;99.90;;;;;;4970542;28;20375;-80
2022/02/18 06:58:59;;;;;;;27.63;3.65;;;7.60;99.90;;;;;;4935649;28;20060;-79
2022/02/18 07:01:26;;;;;;;34.35;3.85;;;7.60;99.90;;;;;;4955692;28;20034;-80
2022/02/18 07:03:53;;;;;;;24.35;3.30;;;7.50;99.90;;;;;;4968542;28;20035;-80
2022/02/18 07:06:19;;;;;;;40.92;4.85;;;7.50;99.90;;;;;;4953108;28;20030;-79
2022/02/18 07:08:46;;;;;;;22.08;3.67;;;7.50;99.90;;;;;;4952233;28;20061;-79
2022/02/18 07:11:13;;;;;;;30.60;4.30;;;7.50;99.90;;;;;;4937230;28;20023;-78
2022/02/18 07:13:40;;;;;;;36.08;4.05;;;7.50;99.90;;;;;;4963379;28;20034;-78
2022/02/18 07:16:07;;;;;;;36.03;5.20;;;7.50;99.90;;;;;;4970707;28;20046;-79
2022/02/18 07:18:34;;;;;;;30.77;4.30;;;7.50;99.90;;;;;;4969394;28;20041;-78
2022/02/18 07:21:01;;;;;;;32.92;3.60;;;7.50;99.90;;;;;;4953700;28;20042;-79
2022/02/18 07:23:29;;;;;;;28.65;3.60;;;7.50;99.90;;;;;;4955793;28;20467;-79
2022/02/18 07:25:55;;;;;;;28.48;3.42;;;7.50;99.90;;;;;;4956053;28;20040;-80
2022/02/18 07:28:22;;;;;;;26.42;3.00;;;7.50;99.90;;;;;;4954500;28;20136;-79
2022/02/18 07:30:48;;;;;;;28.65;3.72;;;7.50;99.90;;;;;;4940436;28;20053;-79
2022/02/18 07:33:15;;;;;;;30.05;4.35;;;7.50;99.90;;;;;;4956483;28;20042;-80
2022/02/18 07:35:41;;;;;;;32.08;4.90;;;7.60;99.90;;;;;;4971656;28;20045;-79
2022/02/18 07:38:08;;;;;;;23.20;2.65;;;7.60;99.90;;;;;;4967286;28;20045;-79
2022/02/18 07:40:35;;;;;;;30.65;4.50;;;7.60;99.90;;;;;;4933289;28;20045;-79
2022/02/18 07:43:01;;;;;;;29.88;3.80;;;7.60;99.90;;;;;;4970423;28;20102;-80
2022/02/18 07:45:27;;;;;;;18.80;2.67;;;7.70;99.90;;;;;;4960096;28;20026;-79
2022/02/18 07:47:56;;;;;;;28.60;3.30;;;7.70;99.90;;;;;;4935106;28;20037;-79
2022/02/18 07:50:24;;;;;;;20.40;3.13;;;7.70;99.90;;;;;;4952107;28;20042;-79
2022/02/18 07:52:51;;;;;;;13.30;2.50;;;7.70;99.90;;;;;;4969104;28;20045;-79
2022/02/18 07:55:17;;;;;;;28.77;3.53;;;7.80;99.90;;;;;;4969659;28;20035;-79
2022/02/18 07:57:44;;;;;;;21.60;2.60;;;7.80;99.90;;;;;;4950999;28;20037;-79
2022/02/18 08:00:12;;;;;;;22.20;3.10;;;7.80;99.90;;;;;;4954003;28;20023;-79
2022/02/18 08:02:41;;;;;;;22.30;3.83;;;7.80;99.90;;;;;;4985148;28;20057;-79
2022/02/18 08:05:08;;;;;;;17.70;2.28;;;7.90;99.90;;;;;;4969684;28;20046;-79
2022/02/18 08:07:34;;;;;;;18.63;2.83;;;7.90;99.90;;;;;;4953857;28;20047;-79
2022/02/18 08:10:01;;;;;;;15.63;2.10;;;8.00;99.90;;;;;;4972274;28;20029;-79
2022/02/18 08:12:27;;;;;;;19.65;2.97;;;8.00;99.90;;;;;;4957478;28;20042;-79
2022/02/18 08:14:53;;;;;;;22.50;3.63;;;8.00;99.90;;;;;;4971458;28;20049;-79
2022/02/18 08:17:20;;;;;;;18.02;3.83;;;8.10;99.90;;;;;;4981191;28;20030;-81
2022/02/18 08:19:47;;;;;;;21.42;2.60;;;8.10;99.90;;;;;;4937383;28;20034;-81
2022/02/18 08:22:16;;;;;;;25.50;3.83;;;8.10;99.90;;;;;;4955431;28;20030;-81
2022/02/18 08:24:43;;;;;;;24.52;3.38;;;8.20;99.90;;;;;;4943355;28;20065;-79
2022/02/18 08:27:09;;;;;;;18.10;3.78;;;8.20;99.90;;;;;;4970956;28;20030;-79
2022/02/18 08:29:36;;;;;;;24.55;3.58;;;8.20;99.90;;;;;;4957775;28;20465;-78
2022/02/18 08:32:03;;;;;;;24.45;3.38;;;8.30;99.90;;;;;;4943711;28;20038;-80
2022/02/18 08:34:30;;;;;;;26.63;4.90;;;8.30;99.90;;;;;;4938382;28;22753;-80
2022/02/18 08:36:57;;;;;;;18.67;3.25;;;8.30;99.90;;;;;;4941507;28;20043;-81
2022/02/18 08:39:23;;;;;;;13.00;2.63;;;8.40;99.90;;;;;;4960633;28;20041;-81
2022/02/18 08:41:49;;;;;;;23.65;2.70;;;8.40;99.90;;;;;;4956744;28;20026;-81
2022/02/18 08:44:16;;;;;;;27.88;4.05;;;8.40;99.90;;;;;;4943624;28;20137;-81
2022/02/18 08:46:43;;;;;;;18.00;2.75;;;8.40;99.90;;;;;;4956522;28;20064;-81
2022/02/18 08:49:10;;;;;;;21.92;2.90;;;8.40;99.90;;;;;;4971816;28;20030;-81
2022/02/18 08:51:41;;;;;;;18.60;3.38;;;8.50;99.90;;;;;;4941136;28;20481;-81
2022/02/18 08:54:08;;;;;;;18.75;3.00;;;8.50;99.90;;;;;;4991554;28;20520;-81
2022/02/18 08:56:35;;;;;;;19.52;3.08;;;8.50;99.90;;;;;;4955018;28;20042;-81
2022/02/18 08:59:03;;;;;;;15.52;3.70;;;8.60;99.90;;;;;;4957430;28;20046;-80
2022/02/18 09:01:30;;;;;;;19.90;4.22;;;8.50;99.90;;;;;;4956250;28;20042;-81
2022/02/18 09:03:57;;;;;;;17.38;3.05;;;8.60;99.90;;;;;;4941616;28;20050;-81
2022/02/18 09:06:24;;;;;;;16.13;2.75;;;8.60;99.90;;;;;;4957327;28;20026;-81
2022/02/18 09:08:59;;;;;;;26.10;4.07;;;8.60;99.90;;;;;;4954512;28;20043;-80
2022/02/18 09:11:32;;;;;;;18.75;2.97;;;8.60;99.90;;;;;;4962137;28;20050;-81
2022/02/18 09:13:58;;;;;;;23.87;3.40;;;8.60;99.90;;;;;;4989403;28;20035;-81
2022/02/18 09:16:29;;;;;;;20.45;3.03;;;8.70;99.90;;;;;;4960386;28;20389;-80
2022/02/18 09:18:59;;;;;;;22.55;3.33;;;8.70;99.90;;;;;;4984715;28;20568;-80
2022/02/18 09:21:26;;;;;;;18.17;2.60;;;8.80;99.90;;;;;;4954805;28;20027;-81
2022/02/18 09:23:53;;;;;;;16.73;3.42;;;8.80;99.90;;;;;;4973859;28;20043;-81
2022/02/18 09:26:20;;;;;;;11.68;2.58;;;8.80;99.90;;;;;;4958535;28;20042;-79
2022/02/18 09:28:49;;;;;;;17.20;2.45;;;8.90;99.90;;;;;;4982059;28;21554;-79
2022/02/18 09:31:17;;;;;;;17.60;3.92;;;8.90;99.90;;;;;;4960546;28;20042;-80
2022/02/18 09:33:43;;;;;;;16.20;4.30;;;9.00;99.90;;;;;;4971570;28;20509;-80
2022/02/18 09:36:10;;;;;;;14.30;3.22;;;9.00;99.90;;;;;;4972599;28;20038;-80
2022/02/18 09:38:36;;;;;;;11.45;2.28;;;9.10;99.90;;;;;;4988418;28;20465;-82
2022/02/18 09:41:06;;;;;;;14.20;2.60;;;9.20;99.90;;;;;;4959176;28;20042;-81
2022/02/18 09:43:35;;;;;;;8.65;2.20;;;9.20;99.90;;;;;;4957683;28;20033;-80
2022/02/18 09:46:03;;;;;;;8.23;2.72;;;9.30;99.90;;;;;;4987957;28;20022;-80
2022/02/18 09:48:30;;;;;;;14.00;2.97;;;9.30;99.90;;;;;;4986929;28;20504;-80
2022/02/18 09:50:56;;;;;;;9.00;2.33;;;9.40;99.90;;;;;;4978124;28;20947;-80
2022/02/18 09:53:25;;;;;;;6.70;2.10;;;9.40;99.90;;;;;;4978938;28;20037;-80
2022/02/18 09:55:51;;;;;;;8.43;2.40;;;9.50;99.90;;;;;;4994862;28;20034;-78
2022/02/18 09:58:22;;;;;;;11.25;2.75;;;9.50;99.90;;;;;;4989432;28;20033;-78
2022/02/18 10:00:50;;;;;;;6.67;2.57;;;9.60;99.90;;;;;;4976942;28;20033;-78
2022/02/18 10:03:20;;;;;;;8.73;3.08;;;9.60;99.90;;;;;;4973853;28;20297;-78
2022/02/18 10:05:46;;;;;;;10.18;2.53;;;9.70;99.90;;;;;;4928623;28;20034;-79
2022/02/18 10:08:15;;;;;;;5.47;1.90;;;9.70;99.90;;;;;;4943956;28;20105;-78
2022/02/18 10:10:55;;;;;;;4.00;1.70;;;9.80;99.90;;;;;;4958653;28;20049;-78
2022/02/18 10:13:52;;;;;;;6.40;3.17;;;9.80;99.90;;;;;;4961438;28;20504;-78
2022/02/18 10:16:26;;;;;;;3.15;1.35;;;9.90;99.90;;;;;;4949712;28;20026;-78
2022/02/18 10:19:00;;;;;;;8.35;1.85;;;9.90;99.90;;;;;;4982428;28;20029;-78
2022/02/18 10:21:35;;;;;;;4.80;1.40;;;10.00;99.90;;;;;;4974509;28;20370;-79
2022/02/18 10:24:10;;;;;;;6.68;2.25;;;10.10;99.90;;;;;;4954400;28;20033;-80
2022/02/18 10:26:38;;;;;;;5.70;2.15;;;10.10;99.90;;;;;;4983232;28;20030;-78
2022/02/18 10:29:06;;;;;;;4.95;1.70;;;10.20;99.90;;;;;;4986716;28;20473;-78
2022/02/18 10:31:33;;;;;;;5.30;2.10;;;10.30;99.90;;;;;;4990492;28;20045;-78
2022/02/18 10:34:08;;;;;;;6.20;1.50;;;10.30;99.90;;;;;;4975302;28;20022;-78
2022/02/18 10:36:43;;;;;;;3.22;1.10;;;10.30;99.90;;;;;;4975148;28;21127;-78
2022/02/18 10:39:28;;;;;;;2.85;1.33;;;10.40;99.90;;;;;;4974294;28;20045;-78
2022/02/18 10:42:03;;;;;;;3.38;1.70;;;10.40;99.90;;;;;;4973798;28;20042;-78
2022/02/18 10:44:35;;;;;;;3.92;1.17;;;10.40;99.90;;;;;;4990250;28;20037;-77
2022/02/18 10:47:07;;;;;;;2.78;1.25;;;10.50;99.90;;;;;;4987429;28;20057;-78
2022/02/18 10:49:43;;;;;;;5.00;1.20;;;10.50;99.90;;;;;;4974979;28;20042;-78
2022/02/18 10:52:20;;;;;;;5.00;0.90;;;10.60;99.90;;;;;;4972445;28;20037;-78
2022/02/18 10:54:49;;;;;;;4.32;0.77;;;10.60;99.90;;;;;;4986473;28;20026;-78
2022/02/18 10:57:16;;;;;;;4.70;1.45;;;10.70;99.90;;;;;;4954841;28;20054;-78
2022/02/18 10:59:44;;;;;;;2.25;0.90;;;10.70;99.90;;;;;;4957465;28;20465;-78
2022/02/18 11:02:12;;;;;;;2.50;0.90;;;10.80;99.90;;;;;;4990349;28;20030;-78
2022/02/18 11:04:45;;;;;;;2.13;1.10;;;10.80;99.90;;;;;;4975140;28;20014;-78
2022/02/18 11:07:18;;;;;;;2.50;0.80;;;10.80;99.90;;;;;;4987379;28;20059;-78
2022/02/18 11:09:47;;;;;;;3.03;1.08;;;10.90;99.90;;;;;;4958791;28;20053;-79
2022/02/18 11:12:17;;;;;;;1.95;0.70;;;10.90;99.90;;;;;;4972546;28;20078;-80
2022/02/18 11:14:46;;;;;;;4.32;2.22;;;10.90;99.90;;;;;;4959045;28;20068;-80
2022/02/18 11:17:16;;;;;;;3.58;1.10;;;10.90;99.90;;;;;;4971854;28;20050;-77
2022/02/18 11:19:44;;;;;;;8.02;4.18;;;10.90;99.90;;;;;;4969793;28;20734;-78
2022/02/18 11:22:17;;;;;;;6.95;3.05;;;11.00;99.90;;;;;;4969448;28;20039;-77
2022/02/18 11:24:52;;;;;;;3.72;1.67;;;11.00;99.90;;;;;;4972538;28;20034;-78
2022/02/18 11:27:31;;;;;;;2.30;0.98;;;11.00;99.90;;;;;;4971596;28;20018;-77
2022/02/18 11:29:59;;;;;;;2.15;0.70;;;11.00;99.90;;;;;;4989331;28;20509;-77
2022/02/18 11:32:36;;;;;;;3.80;0.95;;;11.10;99.90;;;;;;4969636;28;20038;-77
2022/02/18 11:35:30;;;;;;;3.00;0.70;;;11.10;99.90;;;;;;4986678;28;20484;-77
2022/02/18 11:37:57;;;;;;;1.85;0.60;;;11.10;99.90;;;;;;4982556;28;20096;-77
2022/02/18 11:41:07;;;;;;;1.02;0.50;;;11.20;99.90;;;;;;4987936;28;20017;-77
2022/02/18 11:43:43;;;;;;;2.17;0.63;;;11.20;99.90;;;;;;4966345;28;20347;-77
2022/02/18 11:46:19;;;;;;;2.42;0.50;;;11.20;99.90;;;;;;4987113;28;20034;-77
2022/02/18 11:48:49;;;;;;;2.45;0.50;;;11.30;99.90;;;;;;4968356;28;20039;-77
2022/02/18 11:51:23;;;;;;;1.98;0.40;;;11.30;99.90;;;;;;4955870;28;20031;-77
2022/02/18 11:53:57;;;;;;;1.33;0.40;;;11.40;99.90;;;;;;4968995;28;20022;-77
2022/02/18 11:56:53;;;;;;;3.28;0.50;;;11.40;99.90;;;;;;4985578;28;20030;-77
2022/02/18 11:59:20;;;;;;;1.30;0.40;;;11.40;99.90;;;;;;4985456;28;20052;-77
2022/02/18 12:02:01;;;;;;;1.23;0.35;;;11.50;99.90;;;;;;4968634;28;20117;-77
2022/02/18 12:04:28;;;;;;;3.55;0.30;;;11.50;99.90;;;;;;4983640;28;20022;-77
2022/02/18 12:07:13;;;;;;;6.68;0.43;;;11.60;99.90;;;;;;4983324;28;20034;-76
2022/02/18 12:09:49;;;;;;;2.75;1.50;;;11.60;99.90;;;;;;4971427;28;20041;-76
2022/02/18 12:12:38;;;;;;;2.85;0.50;;;11.70;99.90;;;;;;4966972;28;20049;-77
2022/02/18 12:15:16;;;;;;;0.90;0.43;;;11.70;99.90;;;;;;4971079;28;20018;-77
2022/02/18 12:17:48;;;;;;;1.95;0.50;;;11.70;99.90;;;;;;4981836;28;20030;-78
2022/02/18 12:20:27;;;;;;;2.08;0.30;;;11.80;99.90;;;;;;4959782;28;20034;-77
2022/02/18 12:22:54;;;;;;;1.60;0.40;;;11.90;99.90;;;;;;4985046;28;20023;-78
2022/02/18 12:25:27;;;;;;;2.00;0.40;;;11.90;99.90;;;;;;4984658;28;20034;-76
2022/02/18 12:28:18;;;;;;;2.40;0.40;;;11.90;99.90;;;;;;4955373;28;20026;-77
2022/02/18 12:30:58;;;;;;;1.40;0.40;;;11.90;99.90;;;;;;4987771;28;20019;-77
2022/02/18 12:33:29;;;;;;;1.00;0.40;;;11.90;99.90;;;;;;4921973;28;20018;-77
2022/02/18 12:35:55;;;;;;;1.52;0.65;;;11.90;99.90;;;;;;4985315;28;20027;-82
2022/02/18 12:38:21;;;;;;;5.30;2.00;;;12.00;99.90;;;;;;4958443;28;20034;-82
2022/02/18 12:40:49;;;;;;;13.68;5.25;;;12.00;99.90;;;;;;4961500;28;20054;-83
2022/02/18 12:43:17;;;;;;;4.72;1.38;;;12.00;99.90;;;;;;4959129;28;20507;-83
2022/02/18 12:45:54;;;;;;;2.10;0.50;;;12.00;99.90;;;;;;4976542;28;20030;-85
2022/02/18 12:48:34;;;;;;;2.10;0.90;;;12.00;99.90;;;;;;4987904;28;20130;-83
2022/02/18 12:51:06;;;;;;;1.88;0.50;;;12.10;99.90;;;;;;4991277;28;20027;-83
2022/02/18 12:53:32;;;;;;;0.77;0.40;;;12.10;99.90;;;;;;4974570;28;20391;-82
2022/02/18 12:55:59;;;;;;;2.38;0.40;;;12.10;99.90;;;;;;4975844;28;20382;-82
2022/02/18 12:58:25;;;;;;;1.08;0.30;;;12.10;99.90;;;;;;4954838;28;20041;-82